Time;durP1;ratioP1;P1;durP2;ratioP2;P2;SDS_P1;SDS_P2;PMS_P1;PMS_P2;Temp;Humidity;BMP_temperature;BMP_pressure;BME280_temperature;BME280_humidity;BME280_pressure;Samples;Min_cycle;Max_cycle;Signal;HPM_P1;HPM_P2
2021/12/02 00:01:41;;;;;;;1.60;1.40;;;;;4.40;99075.00;;;;5076088;28;20286;-74
2021/12/02 00:04:30;;;;;;;5.77;2.00;;;;;4.40;99106.00;;;;5075280;28;20742;-72
2021/12/02 00:07:16;;;;;;;5.87;1.63;;;;;4.50;99101.00;;;;5074947;28;20801;-71
2021/12/02 00:10:05;;;;;;;6.13;1.80;;;;;4.40;99103.00;;;;5043359;28;20695;-73
2021/12/02 00:12:53;;;;;;;4.27;2.07;;;;;4.30;99113.00;;;;5054583;28;20232;-73
2021/12/02 00:15:45;;;;;;;4.97;1.80;;;;;4.30;99114.00;;;;5066735;28;20239;-71
2021/12/02 00:21:34;;;;;;;3.87;1.43;;;;;4.50;99118.00;;;;5052516;28;20601;-74
2021/12/02 00:24:23;;;;;;;2.57;1.90;;;;;4.50;99124.00;;;;5038612;28;20370;-74
2021/12/02 00:27:11;;;;;;;10.50;1.93;;;;;4.50;99118.00;;;;5034605;28;20639;-72
2021/12/02 00:29:59;;;;;;;4.17;1.70;;;;;4.50;99119.00;;;;5031339;28;20229;-72
2021/12/02 00:32:46;;;;;;;7.43;1.73;;;;;4.50;99120.00;;;;5033542;28;20236;-73
2021/12/02 00:35:33;;;;;;;5.77;2.10;;;;;4.50;99121.00;;;;5031408;28;20760;-73
2021/12/02 00:38:21;;;;;;;6.07;1.80;;;;;4.40;99116.00;;;;5032324;28;20614;-71
2021/12/02 00:41:10;;;;;;;5.67;1.57;;;;;4.50;99120.00;;;;5041294;28;20299;-73
2021/12/02 00:43:58;;;;;;;8.33;2.10;;;;;4.50;99124.00;;;;5040095;28;20236;-73
2021/12/02 00:46:45;;;;;;;8.63;1.80;;;;;4.40;99137.00;;;;5059139;28;20248;-73
2021/12/02 00:49:32;;;;;;;9.50;1.70;;;;;4.50;99117.00;;;;5065818;28;20235;-72
2021/12/02 00:52:20;;;;;;;5.00;1.70;;;;;4.50;99122.00;;;;5066134;28;20337;-74
2021/12/02 00:55:08;;;;;;;3.67;2.20;;;;;4.60;99124.00;;;;5061644;28;20385;-71
2021/12/02 00:57:56;;;;;;;6.33;1.60;;;;;4.60;99129.00;;;;5059632;28;20853;-72
2021/12/02 01:00:43;;;;;;;5.37;1.70;;;;;4.60;99132.00;;;;5066763;28;20598;-74
2021/12/02 01:03:33;;;;;;;8.07;1.87;;;;;4.60;99135.00;;;;5066231;28;20224;-73
2021/12/02 01:06:19;;;;;;;4.90;1.70;;;;;4.60;99139.00;;;;5066606;28;20235;-72
2021/12/02 01:09:09;;;;;;;5.97;1.90;;;;;4.80;99141.00;;;;5060976;28;20235;-73
2021/12/02 01:11:56;;;;;;;3.80;1.93;;;;;4.70;99143.00;;;;5063961;28;20244;-71
2021/12/02 01:14:44;;;;;;;4.93;1.80;;;;;4.70;99138.00;;;;5059665;28;20231;-73
2021/12/02 01:17:30;;;;;;;4.60;1.70;;;;;4.70;99141.00;;;;5057788;28;20431;-72
2021/12/02 01:20:17;;;;;;;10.00;1.80;;;;;4.70;99144.00;;;;5059089;28;20247;-73
2021/12/02 01:23:03;;;;;;;7.33;2.07;;;;;4.60;99143.00;;;;5061598;28;20231;-71
2021/12/02 01:25:55;;;;;;;4.93;1.83;;;;;4.70;99143.00;;;;5053641;28;20739;-75
2021/12/02 01:28:43;;;;;;;3.93;1.77;;;;;4.50;99152.00;;;;5065624;28;20294;-72
2021/12/02 01:31:31;;;;;;;5.23;1.80;;;;;4.50;99147.00;;;;5066070;28;20235;-72
2021/12/02 01:34:22;;;;;;;4.53;1.70;;;;;4.50;99156.00;;;;5062183;28;20223;-73
2021/12/02 01:37:11;;;;;;;5.60;1.37;;;;;4.50;99145.00;;;;5062001;28;20306;-72
2021/12/02 01:39:57;;;;;;;6.27;1.60;;;;;4.50;99153.00;;;;5060194;28;20235;-74
2021/12/02 01:42:48;;;;;;;4.30;1.73;;;;;4.50;99145.00;;;;5062155;28;20702;-75
2021/12/02 01:45:39;;;;;;;6.37;1.77;;;;;4.50;99144.00;;;;5064498;28;20244;-73
2021/12/02 01:48:27;;;;;;;5.83;1.60;;;;;4.50;99140.00;;;;5069686;28;20236;-75
2021/12/02 01:51:15;;;;;;;8.10;2.10;;;;;4.60;99139.00;;;;5065879;28;20729;-74
2021/12/02 01:54:05;;;;;;;7.23;1.77;;;;;4.70;99144.00;;;;5065954;28;20273;-74
2021/12/02 01:56:54;;;;;;;13.33;1.77;;;;;4.70;99147.00;;;;5069844;28;20370;-73
2021/12/02 01:59:48;;;;;;;9.43;2.00;;;;;4.60;99147.00;;;;5068126;28;20280;-74
2021/12/02 02:02:37;;;;;;;11.10;1.87;;;;;4.80;99147.00;;;;5067864;28;20231;-73
2021/12/02 02:05:24;;;;;;;4.77;1.73;;;;;4.60;99146.00;;;;5069221;28;20294;-72
2021/12/02 02:08:15;;;;;;;7.87;1.60;;;;;4.70;99143.00;;;;5069109;28;20840;-73
2021/12/02 02:11:02;;;;;;;6.23;1.70;;;;;4.70;99157.00;;;;5065380;28;20233;-72
2021/12/02 02:13:48;;;;;;;5.77;2.03;;;;;4.80;99157.00;;;;5062135;28;20227;-74
2021/12/02 02:16:36;;;;;;;8.73;1.80;;;;;4.70;99154.00;;;;5063256;28;20718;-73
2021/12/02 02:19:23;;;;;;;6.40;1.70;;;;;4.80;99155.00;;;;5069176;28;20262;-74
2021/12/02 02:22:12;;;;;;;7.73;1.83;;;;;4.90;99150.00;;;;5068247;28;20829;-71
2021/12/02 02:25:00;;;;;;;4.23;1.83;;;;;4.90;99157.00;;;;5061442;28;20612;-74
2021/12/02 02:27:46;;;;;;;6.40;1.80;;;;;5.00;99160.00;;;;5063814;28;20244;-73
2021/12/02 02:30:33;;;;;;;5.97;2.33;;;;;5.00;99159.00;;;;5062726;28;20668;-74
2021/12/02 02:33:20;;;;;;;4.27;2.40;;;;;5.10;99163.00;;;;5068478;28;20235;-71
2021/12/02 02:36:08;;;;;;;7.43;2.33;;;;;5.00;99175.00;;;;5063854;28;20661;-73
2021/12/02 02:38:56;;;;;;;4.87;2.10;;;;;4.90;99171.00;;;;5062529;28;20761;-74
2021/12/02 02:41:45;;;;;;;8.37;2.40;;;;;4.80;99168.00;;;;5068195;28;20239;-75
2021/12/02 02:44:33;;;;;;;11.27;2.30;;;;;4.80;99155.00;;;;5059632;28;20236;-74
2021/12/02 02:47:24;;;;;;;5.33;2.10;;;;;4.80;99139.00;;;;5061450;28;20239;-75
2021/12/02 02:50:13;;;;;;;3.77;1.80;;;;;4.70;99146.00;;;;5053888;28;20649;-75
2021/12/02 02:53:10;;;;;;;4.53;2.17;;;;;4.60;99130.00;;;;5062102;28;20232;-74
2021/12/02 02:56:05;;;;;;;6.50;2.53;;;;;4.60;99150.00;;;;5065224;28;20264;-74
2021/12/02 02:59:00;;;;;;;8.47;2.20;;;;;4.50;99153.00;;;;5044911;28;20322;-72
2021/12/02 03:01:51;;;;;;;2.50;1.70;;;;;4.40;99151.00;;;;5065402;28;20227;-75
2021/12/02 03:04:44;;;;;;;6.83;2.27;;;;;4.50;99150.00;;;;5062009;28;20619;-76
2021/12/02 03:07:35;;;;;;;2.17;1.80;;;;;4.40;99134.00;;;;5068290;28;20741;-74
2021/12/02 03:10:29;;;;;;;7.63;1.90;;;;;4.40;99159.00;;;;5069017;28;20355;-73
2021/12/02 03:13:20;;;;;;;5.17;1.53;;;;;4.40;99152.00;;;;5060839;28;20326;-75
2021/12/02 03:19:16;;;;;;;4.80;1.30;;;;;4.10;99145.00;;;;5050941;28;20247;-76
2021/12/02 03:22:02;;;;;;;2.37;1.50;;;;;4.10;99149.00;;;;5056441;28;20235;-76
2021/12/02 03:24:48;;;;;;;2.83;1.40;;;;;4.00;99161.00;;;;5056891;28;20377;-76
2021/12/02 03:27:35;;;;;;;1.73;1.27;;;;;4.00;99161.00;;;;5048507;28;20286;-74
2021/12/02 03:30:23;;;;;;;3.27;1.20;;;;;3.90;99153.00;;;;5047731;28;20256;-77
2021/12/02 03:33:09;;;;;;;2.23;1.40;;;;;3.80;99160.00;;;;5066010;28;20330;-74
2021/12/02 03:35:56;;;;;;;2.67;1.30;;;;;3.70;99158.00;;;;5050576;28;20258;-76
2021/12/02 03:38:48;;;;;;;1.00;0.90;;;;;3.70;99156.00;;;;5047830;28;20237;-76
2021/12/02 03:41:34;;;;;;;3.07;1.30;;;;;3.70;99169.00;;;;5046593;28;20237;-77
2021/12/02 03:44:21;;;;;;;3.17;1.30;;;;;3.70;99162.00;;;;5059134;28;20718;-74
2021/12/02 03:47:09;;;;;;;4.73;1.30;;;;;3.60;99163.00;;;;5057319;28;20235;-73
2021/12/02 03:49:55;;;;;;;3.47;1.40;;;;;3.50;99170.00;;;;5066614;28;20869;-75
2021/12/02 03:52:42;;;;;;;2.70;1.20;;;;;3.60;99172.00;;;;5064396;28;20704;-76
2021/12/02 03:55:28;;;;;;;2.33;1.40;;;;;3.50;99164.00;;;;5039208;28;20241;-73
2021/12/02 03:58:14;;;;;;;1.33;0.93;;;;;3.50;99145.00;;;;5072106;28;20597;-75
2021/12/02 04:01:00;;;;;;;2.77;1.23;;;;;3.50;99162.00;;;;5071703;28;20248;-76
2021/12/02 04:03:49;;;;;;;1.53;1.10;;;;;3.50;99167.00;;;;5068634;28;20362;-75
2021/12/02 04:06:35;;;;;;;3.93;1.30;;;;;3.50;99161.00;;;;5083385;28;20277;-75
2021/12/02 04:09:24;;;;;;;3.27;1.27;;;;;3.60;99166.00;;;;5055873;28;20236;-72
2021/12/02 04:12:16;;;;;;;1.83;1.40;;;;;3.60;99161.00;;;;5049525;28;20613;-75
2021/12/02 04:15:05;;;;;;;1.87;1.00;;;;;3.50;99158.00;;;;5044810;28;20244;-74
2021/12/02 04:17:51;;;;;;;3.10;1.20;;;;;3.50;99164.00;;;;5059726;28;20377;-72
2021/12/02 04:20:39;;;;;;;1.73;1.30;;;;;3.40;99165.00;;;;5066612;28;20230;-74
2021/12/02 04:23:26;;;;;;;4.47;1.20;;;;;3.50;99174.00;;;;5057639;28;20665;-75
2021/12/02 04:26:11;;;;;;;2.97;1.20;;;;;3.40;99169.00;;;;5066651;28;20239;-75
2021/12/02 04:28:58;;;;;;;2.10;1.30;;;;;3.30;99170.00;;;;5061014;28;20288;-76
2021/12/02 04:31:45;;;;;;;2.20;1.10;;;;;3.20;99174.00;;;;5058302;28;20326;-73
2021/12/02 04:34:31;;;;;;;3.53;1.40;;;;;3.30;99172.00;;;;5066860;28;20219;-75
2021/12/02 04:37:18;;;;;;;1.63;1.30;;;;;3.30;99167.00;;;;5067260;28;20228;-74
2021/12/02 04:40:06;;;;;;;1.57;1.20;;;;;3.30;99174.00;;;;5067237;28;20243;-76
2021/12/02 04:42:53;;;;;;;4.30;1.50;;;;;3.40;99176.00;;;;5059758;28;20233;-76
2021/12/02 04:45:40;;;;;;;3.37;1.50;;;;;3.50;99192.00;;;;5067260;28;20235;-75
2021/12/02 04:48:26;;;;;;;4.37;1.73;;;;;3.60;99187.00;;;;5058521;28;20310;-76
2021/12/02 04:51:12;;;;;;;5.93;1.80;;;;;3.70;99180.00;;;;5066419;28;20716;-74
2021/12/02 04:54:00;;;;;;;3.87;1.70;;;;;3.70;99175.00;;;;5067045;28;20227;-75
2021/12/02 04:56:46;;;;;;;5.23;1.63;;;;;3.70;99175.00;;;;5064841;28;20235;-73
2021/12/02 04:59:33;;;;;;;3.17;1.90;;;;;3.60;99171.00;;;;5066134;28;20726;-75
2021/12/02 05:02:19;;;;;;;4.27;2.00;;;;;3.70;99168.00;;;;5060418;28;20232;-75
2021/12/02 05:05:07;;;;;;;4.33;2.07;;;;;3.60;99156.00;;;;5066243;28;20616;-75
2021/12/02 05:07:54;;;;;;;6.10;2.23;;;;;3.70;99153.00;;;;5066295;28;20722;-73
2021/12/02 05:10:41;;;;;;;5.87;2.70;;;;;3.70;99158.00;;;;5074907;28;20274;-73
2021/12/02 05:13:28;;;;;;;3.80;2.10;;;;;3.60;99164.00;;;;5067138;28;20240;-73
2021/12/02 05:16:14;;;;;;;3.60;2.00;;;;;3.70;99169.00;;;;5052657;28;20651;-74
2021/12/02 05:19:00;;;;;;;4.70;2.07;;;;;3.60;99171.00;;;;5047011;28;20239;-74
2021/12/02 05:21:46;;;;;;;3.50;1.93;;;;;3.70;99182.00;;;;5045408;28;20242;-75
2021/12/02 05:24:32;;;;;;;4.63;2.60;;;;;3.80;99181.00;;;;5045429;28;20833;-75
2021/12/02 05:27:20;;;;;;;5.20;2.47;;;;;3.80;99170.00;;;;5045864;28;20228;-74
2021/12/02 05:30:08;;;;;;;4.23;2.53;;;;;3.90;99180.00;;;;5070129;28;20234;-72
2021/12/02 05:32:54;;;;;;;6.03;2.43;;;;;4.00;99183.00;;;;5067605;28;20255;-75
2021/12/02 05:35:40;;;;;;;4.43;2.73;;;;;3.90;99174.00;;;;5078806;28;20673;-74
2021/12/02 05:38:26;;;;;;;8.40;2.70;;;;;4.00;99178.00;;;;5059071;28;20228;-75
2021/12/02 05:41:14;;;;;;;5.63;3.10;;;;;4.00;99194.00;;;;5073826;28;20354;-74
2021/12/02 05:44:02;;;;;;;9.63;2.87;;;;;4.00;99184.00;;;;5048767;28;20796;-74
2021/12/02 05:46:48;;;;;;;4.17;2.77;;;;;4.00;99180.00;;;;5057721;28;20235;-73
2021/12/02 05:49:35;;;;;;;4.80;2.43;;;;;4.00;99194.00;;;;5072780;28;20362;-73
2021/12/02 05:52:21;;;;;;;3.90;2.57;;;;;4.00;99191.00;;;;5077122;28;20602;-74
2021/12/02 05:55:08;;;;;;;5.90;2.77;;;;;4.10;99184.00;;;;5048984;28;20240;-75
2021/12/02 05:57:54;;;;;;;3.60;2.60;;;;;4.00;99189.00;;;;5041724;28;20232;-73
2021/12/02 06:00:43;;;;;;;5.83;2.93;;;;;4.00;99198.00;;;;5065053;28;20234;-73
2021/12/02 06:03:30;;;;;;;7.63;2.63;;;;;4.10;99178.00;;;;5065635;28;20359;-72
2021/12/02 06:06:17;;;;;;;6.77;2.87;;;;;3.90;99197.00;;;;5061526;28;20244;-72
2021/12/02 06:09:05;;;;;;;5.57;2.87;;;;;3.90;99202.00;;;;5062698;28;20232;-72
2021/12/02 06:11:51;;;;;;;5.00;2.67;;;;;3.90;99214.00;;;;5066204;28;20637;-74
2021/12/02 06:14:37;;;;;;;4.20;2.60;;;;;3.90;99215.00;;;;5060765;28;20360;-75
2021/12/02 06:17:25;;;;;;;4.93;2.30;;;;;3.90;99215.00;;;;5066330;28;20233;-73
2021/12/02 06:20:13;;;;;;;8.73;2.37;;;;;3.90;99222.00;;;;5065847;28;20610;-74
2021/12/02 06:22:59;;;;;;;4.27;2.50;;;;;3.90;99219.00;;;;5065606;28;20278;-74
2021/12/02 06:25:45;;;;;;;5.33;2.77;;;;;3.90;99217.00;;;;5058074;28;20241;-74
2021/12/02 06:28:31;;;;;;;9.30;5.53;;;;;3.90;99226.00;;;;5064057;28;20286;-73
2021/12/02 06:31:17;;;;;;;10.07;3.73;;;;;3.90;99232.00;;;;5058543;28;20231;-74
2021/12/02 06:34:06;;;;;;;4.43;2.30;;;;;3.90;99233.00;;;;5062182;28;20359;-73
2021/12/02 06:36:52;;;;;;;7.57;2.20;;;;;3.90;99231.00;;;;5064909;28;20328;-73
2021/12/02 06:39:39;;;;;;;5.67;2.50;;;;;3.90;99235.00;;;;5066529;28;20223;-73
2021/12/02 06:42:25;;;;;;;4.20;2.10;;;;;4.00;99242.00;;;;5060571;28;20248;-74
2021/12/02 06:45:12;;;;;;;4.77;1.83;;;;;3.90;99242.00;;;;5067412;28;20365;-74
2021/12/02 06:48:03;;;;;;;4.87;2.20;;;;;3.90;99243.00;;;;5062899;28;20754;-74
2021/12/02 06:50:51;;;;;;;3.37;1.97;;;;;3.90;99231.00;;;;5052044;28;20240;-74
2021/12/02 06:53:38;;;;;;;5.07;2.40;;;;;3.90;99255.00;;;;5054634;28;20307;-74
2021/12/02 06:56:24;;;;;;;5.90;1.87;;;;;4.00;99252.00;;;;5068586;28;20600;-74
2021/12/02 06:59:10;;;;;;;3.37;1.93;;;;;3.90;99263.00;;;;5065768;28;20765;-74
2021/12/02 07:01:56;;;;;;;7.10;2.37;;;;;4.00;99231.00;;;;5068716;28;20290;-75
2021/12/02 07:04:43;;;;;;;6.43;2.07;;;;;3.90;99267.00;;;;5060314;28;20235;-74
2021/12/02 07:07:35;;;;;;;5.37;2.10;;;;;4.00;99271.00;;;;5065187;28;20231;-74
2021/12/02 07:10:24;;;;;;;5.97;1.77;;;;;3.90;99272.00;;;;5068314;28;20290;-74
2021/12/02 07:13:11;;;;;;;3.23;1.80;;;;;4.00;99277.00;;;;5063810;28;20757;-74
2021/12/02 07:16:00;;;;;;;5.33;1.80;;;;;4.00;99274.00;;;;5061968;28;20240;-75
2021/12/02 07:18:53;;;;;;;2.43;1.80;;;;;4.00;99281.00;;;;5060756;28;20324;-74
2021/12/02 07:21:41;;;;;;;4.33;2.13;;;;;3.90;99277.00;;;;5066986;28;20305;-75
2021/12/02 07:24:28;;;;;;;4.30;1.83;;;;;3.90;99283.00;;;;5067417;28;20783;-74
2021/12/02 07:27:30;;;;;;;4.50;2.30;;;;;4.00;99286.00;;;;5067385;28;20232;-74
2021/12/02 07:30:16;;;;;;;3.87;2.70;;;;;4.00;99286.00;;;;5068048;28;20274;-75
2021/12/02 07:33:05;;;;;;;3.20;2.53;;;;;4.00;99297.00;;;;5062046;28;20349;-74
2021/12/02 07:35:51;;;;;;;3.20;2.70;;;;;4.00;99296.00;;;;5067838;28;20321;-74
2021/12/02 07:38:38;;;;;;;4.07;3.00;;;;;4.00;99293.00;;;;5059786;28;20242;-74
2021/12/02 07:41:26;;;;;;;5.10;2.97;;;;;3.90;99294.00;;;;5065341;28;20322;-74
2021/12/02 07:44:12;;;;;;;4.67;3.07;;;;;3.80;99300.00;;;;5066964;28;20228;-74
2021/12/02 07:46:58;;;;;;;5.00;3.47;;;;;3.90;99309.00;;;;5063980;28;20249;-74
2021/12/02 07:49:45;;;;;;;3.97;3.23;;;;;3.90;99288.00;;;;5067602;28;20262;-74
2021/12/02 07:52:34;;;;;;;6.57;3.07;;;;;3.80;99314.00;;;;5064557;28;20792;-73
2021/12/02 07:55:22;;;;;;;4.33;3.23;;;;;3.80;99306.00;;;;5064849;28;20822;-74
2021/12/02 07:58:11;;;;;;;9.33;4.00;;;;;3.80;99305.00;;;;5061777;28;20232;-74
2021/12/02 08:00:59;;;;;;;4.67;2.97;;;;;3.70;99311.00;;;;5054158;28;20294;-74
2021/12/02 08:03:47;;;;;;;5.03;3.37;;;;;3.80;99316.00;;;;5051538;28;20245;-74
2021/12/02 08:06:33;;;;;;;6.27;3.47;;;;;3.80;99323.00;;;;5056855;28;20609;-73
2021/12/02 08:09:21;;;;;;;5.13;3.33;;;;;3.80;99331.00;;;;5051578;28;20370;-73
2021/12/02 08:12:08;;;;;;;5.17;3.10;;;;;3.80;99324.00;;;;5062272;28;20228;-73
2021/12/02 08:14:56;;;;;;;7.00;3.80;;;;;3.80;99329.00;;;;5056193;28;20245;-72
2021/12/02 08:17:43;;;;;;;5.43;3.47;;;;;3.70;99344.00;;;;5059370;28;20301;-72
2021/12/02 08:20:30;;;;;;;4.70;3.20;;;;;3.90;99352.00;;;;5066842;28;20234;-71
2021/12/02 08:23:18;;;;;;;6.83;3.23;;;;;3.90;99362.00;;;;5061899;28;20239;-71
2021/12/02 08:26:05;;;;;;;6.30;3.37;;;;;4.00;99364.00;;;;5054459;28;20281;-71
2021/12/02 08:28:51;;;;;;;5.67;3.60;;;;;4.00;99376.00;;;;5066340;28;20306;-70
2021/12/02 08:31:39;;;;;;;5.83;3.20;;;;;4.10;99374.00;;;;5069752;28;20254;-71
2021/12/02 08:34:26;;;;;;;4.53;2.47;;;;;4.10;99368.00;;;;5066531;28;20290;-71
2021/12/02 08:37:12;;;;;;;4.00;2.47;;;;;4.10;99373.00;;;;5061041;28;20599;-71
2021/12/02 08:40:00;;;;;;;3.00;2.30;;;;;4.10;99376.00;;;;5059950;28;20239;-72
2021/12/02 08:42:47;;;;;;;3.80;2.40;;;;;4.10;99382.00;;;;5067690;28;20722;-70
2021/12/02 08:45:35;;;;;;;2.20;2.00;;;;;4.10;99382.00;;;;5064859;28;20231;-72
2021/12/02 08:48:22;;;;;;;2.33;1.97;;;;;4.10;99374.00;;;;5057385;28;20290;-70
2021/12/02 08:51:08;;;;;;;3.97;2.30;;;;;4.20;99377.00;;;;5065527;28;20244;-71
2021/12/02 08:53:55;;;;;;;3.60;2.57;;;;;4.10;99387.00;;;;5066707;28;20231;-70
2021/12/02 08:56:41;;;;;;;3.30;2.17;;;;;4.20;99386.00;;;;5056555;28;20227;-71
2021/12/02 08:59:27;;;;;;;4.70;2.20;;;;;4.20;99389.00;;;;5066346;28;20257;-71
2021/12/02 09:02:13;;;;;;;2.60;2.23;;;;;4.20;99393.00;;;;5058393;28;20231;-71
2021/12/02 09:05:03;;;;;;;3.50;2.10;;;;;4.20;99392.00;;;;5053744;28;20259;-72
2021/12/02 09:07:50;;;;;;;2.93;2.10;;;;;4.30;99391.00;;;;5063855;28;20231;-70
2021/12/02 09:10:38;;;;;;;3.77;2.30;;;;;4.50;99407.00;;;;5063159;28;20281;-71
2021/12/02 09:13:24;;;;;;;6.07;2.40;;;;;4.50;99398.00;;;;5059662;28;20236;-73
2021/12/02 09:16:11;;;;;;;4.57;2.30;;;;;4.50;99416.00;;;;5062925;28;20745;-72
2021/12/02 09:18:59;;;;;;;2.90;2.07;;;;;4.50;99424.00;;;;5059971;28;20390;-71
2021/12/02 09:21:47;;;;;;;2.63;2.00;;;;;4.50;99427.00;;;;5066000;28;20793;-72
2021/12/02 09:24:33;;;;;;;2.77;2.00;;;;;4.50;99429.00;;;;5063304;28;20236;-71
2021/12/02 09:27:19;;;;;;;2.90;2.20;;;;;4.70;99430.00;;;;5065406;28;20274;-72
2021/12/02 09:30:08;;;;;;;2.77;2.17;;;;;4.50;99433.00;;;;5062108;28;20745;-72
2021/12/02 09:32:55;;;;;;;2.80;1.83;;;;;4.40;99437.00;;;;5059409;28;20366;-71
2021/12/02 09:35:41;;;;;;;4.47;2.10;;;;;4.50;99440.00;;;;5065094;28;20251;-72
2021/12/02 09:38:29;;;;;;;3.93;2.13;;;;;4.40;99438.00;;;;5063630;28;20301;-71
2021/12/02 09:41:16;;;;;;;4.73;1.90;;;;;4.40;99438.00;;;;5065679;28;20237;-71
2021/12/02 09:44:02;;;;;;;5.23;2.20;;;;;4.30;99445.00;;;;5058986;28;20231;-72
2021/12/02 09:46:49;;;;;;;5.20;2.17;;;;;4.30;99444.00;;;;5066145;28;20278;-71
2021/12/02 09:49:36;;;;;;;3.10;2.37;;;;;4.40;99448.00;;;;5063861;28;20233;-73
2021/12/02 09:52:30;;;;;;;3.60;2.20;;;;;4.50;99455.00;;;;5059812;28;20306;-72
2021/12/02 09:55:23;;;;;;;3.70;2.50;;;;;4.50;99443.00;;;;5053916;28;20236;-72
2021/12/02 09:58:16;;;;;;;3.50;2.43;;;;;4.50;99454.00;;;;5060937;28;20239;-73
2021/12/02 10:01:08;;;;;;;4.93;2.57;;;;;4.30;99454.00;;;;5059721;28;20227;-73
2021/12/02 10:03:59;;;;;;;3.07;2.17;;;;;4.40;99458.00;;;;5059136;28;20243;-72
2021/12/02 10:06:46;;;;;;;2.77;2.17;;;;;4.30;99459.00;;;;5057356;28;20230;-73
2021/12/02 10:09:40;;;;;;;5.33;2.60;;;;;4.20;99467.00;;;;5052352;28;20635;-73
2021/12/02 10:12:28;;;;;;;3.67;2.47;;;;;4.20;99457.00;;;;5049295;28;20733;-70
2021/12/02 10:15:16;;;;;;;7.93;2.60;;;;;4.20;99466.00;;;;5050190;28;20374;-73
2021/12/02 10:18:10;;;;;;;2.50;2.17;;;;;4.30;99457.00;;;;5037401;28;20229;-73
2021/12/02 10:21:16;;;;;;;3.63;2.20;;;;;4.20;99457.00;;;;5045718;28;20920;-71
2021/12/02 10:24:06;;;;;;;4.00;2.20;;;;;4.30;99460.00;;;;5043921;28;20284;-72
2021/12/02 10:26:54;;;;;;;3.43;2.67;;;;;4.40;99471.00;;;;5045893;28;20745;-73
2021/12/02 10:30:20;;;;;;;2.97;2.30;;;;;4.40;99467.00;;;;5046602;28;20319;-73
2021/12/02 10:33:06;;;;;;;4.07;2.43;;;;;4.50;99468.00;;;;5067856;28;20240;-73
2021/12/02 10:35:52;;;;;;;2.40;2.00;;;;;4.70;99466.00;;;;5065971;28;20240;-73
2021/12/02 10:38:41;;;;;;;5.93;2.23;;;;;4.60;99468.00;;;;5066043;28;20606;-72
2021/12/02 10:41:29;;;;;;;4.03;2.40;;;;;4.60;99468.00;;;;5068649;28;20235;-72
2021/12/02 10:44:20;;;;;;;2.20;2.00;;;;;4.70;99469.00;;;;5057197;28;20753;-72
2021/12/02 10:47:10;;;;;;;2.47;2.23;;;;;4.60;99466.00;;;;5060541;28;20240;-74
2021/12/02 10:49:59;;;;;;;2.57;2.17;;;;;4.70;99466.00;;;;5067506;28;20228;-71
2021/12/02 10:52:46;;;;;;;4.13;1.90;;;;;4.50;99472.00;;;;5058711;28;20324;-71
2021/12/02 10:55:34;;;;;;;3.63;2.30;;;;;4.70;99480.00;;;;5047862;28;20234;-73
2021/12/02 10:58:31;;;;;;;2.40;1.90;;;;;4.60;99481.00;;;;5043500;28;20712;-73
2021/12/02 11:01:38;;;;;;;3.17;1.97;;;;;4.70;99472.00;;;;5045755;28;20371;-71
2021/12/02 11:04:27;;;;;;;2.20;2.00;;;;;4.70;99484.00;;;;5038085;28;20299;-74
2021/12/02 11:07:22;;;;;;;2.20;2.00;;;;;4.80;99479.00;;;;5042122;28;20237;-74
2021/12/02 11:10:11;;;;;;;5.93;2.40;;;;;4.70;99482.00;;;;5057025;28;20599;-74
2021/12/02 11:12:57;;;;;;;2.23;1.90;;;;;4.70;99490.00;;;;5056905;28;20358;-74
2021/12/02 11:15:44;;;;;;;2.43;2.00;;;;;4.60;99488.00;;;;5054877;28;20655;-71
2021/12/02 11:18:34;;;;;;;3.37;2.07;;;;;4.50;99490.00;;;;5062915;28;20296;-68
2021/12/02 11:21:23;;;;;;;3.10;2.17;;;;;4.50;99483.00;;;;5063260;28;20239;-69
2021/12/02 11:24:09;;;;;;;3.20;1.87;;;;;4.50;99490.00;;;;5073345;28;20247;-70
2021/12/02 11:27:15;;;;;;;5.20;2.13;;;;;4.60;99491.00;;;;5072758;28;20296;-72
2021/12/02 11:30:05;;;;;;;2.37;2.00;;;;;4.80;99487.00;;;;5059136;28;20231;-74
2021/12/02 11:32:56;;;;;;;6.57;2.20;;;;;4.80;99499.00;;;;5058856;28;20610;-73
2021/12/02 11:35:44;;;;;;;2.97;1.70;;;;;4.90;99490.00;;;;5039896;28;20232;-75
2021/12/02 11:38:34;;;;;;;5.10;2.13;;;;;4.80;99488.00;;;;5046365;28;20770;-78
2021/12/02 11:41:20;;;;;;;4.13;2.30;;;;;4.80;99487.00;;;;5044030;28;20723;-75
2021/12/02 11:44:06;;;;;;;3.10;2.23;;;;;4.80;99481.00;;;;5053770;28;20236;-76
2021/12/02 11:46:53;;;;;;;3.60;2.40;;;;;4.90;99466.00;;;;5045123;28;20276;-73
2021/12/02 11:49:41;;;;;;;3.53;2.40;;;;;4.90;99487.00;;;;5043843;28;20805;-75
2021/12/02 11:52:28;;;;;;;3.50;2.30;;;;;5.00;99487.00;;;;5031396;28;20240;-76
2021/12/02 11:55:19;;;;;;;2.97;2.60;;;;;5.10;99487.00;;;;5048586;28;20282;-75
2021/12/02 11:58:06;;;;;;;3.87;2.87;;;;;5.20;99475.00;;;;5068340;28;20230;-75
2021/12/02 12:00:53;;;;;;;4.40;2.93;;;;;5.00;99500.00;;;;5063305;28;20994;-76
2021/12/02 12:03:43;;;;;;;5.50;2.77;;;;;4.90;99494.00;;;;5036744;28;20237;-76
2021/12/02 12:06:31;;;;;;;5.63;2.80;;;;;4.90;99498.00;;;;5041945;28;20233;-72
2021/12/02 12:09:20;;;;;;;5.63;3.17;;;;;4.90;99516.00;;;;5063443;28;20732;-74
2021/12/02 12:12:10;;;;;;;7.70;4.00;;;;;4.90;99513.00;;;;5060043;28;20281;-74
2021/12/02 12:14:56;;;;;;;3.33;2.60;;;;;4.90;99512.00;;;;5058297;28;20358;-75
2021/12/02 12:17:43;;;;;;;4.70;2.40;;;;;4.90;99522.00;;;;5061406;28;20301;-74
2021/12/02 12:21:05;;;;;;;2.30;2.10;;;;;4.90;99526.00;;;;5062969;28;20383;-75
2021/12/02 12:24:00;;;;;;;3.50;2.03;;;;;4.70;99533.00;;;;5050970;28;20307;-73
2021/12/02 12:26:47;;;;;;;2.80;2.30;;;;;4.60;99523.00;;;;5065212;28;20220;-73
2021/12/02 12:29:35;;;;;;;3.17;2.43;;;;;4.50;99515.00;;;;5060328;28;20232;-71
2021/12/02 12:32:44;;;;;;;4.47;2.80;;;;;4.60;99543.00;;;;5063755;28;20232;-72
2021/12/02 12:35:47;;;;;;;7.10;2.80;;;;;4.70;99542.00;;;;5051925;28;20363;-71
2021/12/02 12:38:36;;;;;;;5.37;2.77;;;;;4.70;99546.00;;;;5057957;28;20247;-73
2021/12/02 12:41:22;;;;;;;3.40;2.67;;;;;4.60;99552.00;;;;5059659;28;20313;-76
2021/12/02 12:44:09;;;;;;;3.83;2.27;;;;;4.80;99561.00;;;;5057879;28;20791;-73
2021/12/02 12:46:56;;;;;;;2.87;2.10;;;;;4.60;99565.00;;;;5064038;28;20231;-73
2021/12/02 12:49:45;;;;;;;5.53;2.20;;;;;4.50;99577.00;;;;5056960;28;20261;-73
2021/12/02 12:52:31;;;;;;;2.20;1.87;;;;;4.70;99576.00;;;;5066253;28;20236;-71
2021/12/02 12:55:18;;;;;;;2.87;2.13;;;;;4.80;99576.00;;;;5059374;28;20252;-74
2021/12/02 12:58:08;;;;;;;2.43;1.70;;;;;4.70;99573.00;;;;5062824;28;20234;-74
2021/12/02 13:00:57;;;;;;;4.03;2.00;;;;;4.80;99581.00;;;;5048627;28;20627;-75
2021/12/02 13:04:02;;;;;;;2.00;1.70;;;;;4.70;99591.00;;;;5046180;28;20258;-76
2021/12/02 13:07:03;;;;;;;2.30;1.80;;;;;4.60;99585.00;;;;5064956;28;20231;-73
2021/12/02 13:09:58;;;;;;;2.60;1.70;;;;;4.70;99583.00;;;;5059143;28;20282;-74
2021/12/02 13:12:52;;;;;;;2.17;2.00;;;;;4.70;99585.00;;;;5061195;28;20248;-74
2021/12/02 13:15:39;;;;;;;1.90;1.70;;;;;4.70;99590.00;;;;5038045;28;20296;-76
2021/12/02 13:18:33;;;;;;;2.70;1.80;;;;;4.70;99584.00;;;;5034385;28;20236;-74
2021/12/02 13:21:30;;;;;;;2.83;1.87;;;;;4.90;99583.00;;;;5038132;28;20228;-75
2021/12/02 13:24:18;;;;;;;5.43;2.20;;;;;4.90;99590.00;;;;5038833;28;20225;-76
2021/12/02 13:27:06;;;;;;;2.60;2.13;;;;;4.90;99601.00;;;;5046242;28;20228;-73
2021/12/02 13:29:53;;;;;;;2.20;1.80;;;;;5.00;99598.00;;;;5058696;28;20274;-72
2021/12/02 13:32:39;;;;;;;4.23;2.27;;;;;5.00;99605.00;;;;5062067;28;20231;-70
2021/12/02 13:35:26;;;;;;;3.23;2.10;;;;;5.00;99594.00;;;;5055905;28;20249;-69
2021/12/02 13:38:14;;;;;;;2.80;2.10;;;;;4.90;99612.00;;;;5066738;28;20250;-69
2021/12/02 13:41:12;;;;;;;2.20;2.00;;;;;5.00;99611.00;;;;5061288;28;20235;-72
2021/12/02 13:44:05;;;;;;;2.83;2.20;;;;;4.90;99595.00;;;;5066249;28;20670;-71
2021/12/02 13:46:53;;;;;;;3.80;2.10;;;;;4.90;99607.00;;;;5068234;28;20329;-68
2021/12/02 13:49:45;;;;;;;1.90;1.80;;;;;4.80;99620.00;;;;5065491;28;20232;-70
2021/12/02 13:52:37;;;;;;;2.60;1.93;;;;;4.70;99628.00;;;;5065327;28;20343;-70
2021/12/02 13:55:28;;;;;;;3.20;2.00;;;;;4.80;99631.00;;;;5067242;28;20290;-70
2021/12/02 13:58:27;;;;;;;3.77;1.93;;;;;4.90;99645.00;;;;5063551;28;20232;-69
2021/12/02 14:01:14;;;;;;;2.97;1.93;;;;;4.80;99636.00;;;;5061379;28;20298;-70
2021/12/02 14:04:02;;;;;;;2.63;1.90;;;;;4.70;99639.00;;;;5056944;28;20825;-70
2021/12/02 14:06:49;;;;;;;1.90;1.80;;;;;4.70;99648.00;;;;5039208;28;20347;-71
2021/12/02 14:09:44;;;;;;;2.30;1.67;;;;;4.80;99646.00;;;;5041377;28;20310;-71
2021/12/02 14:12:42;;;;;;;2.20;2.00;;;;;4.80;99651.00;;;;5064776;28;20236;-76
2021/12/02 14:15:30;;;;;;;2.47;1.93;;;;;4.80;99623.00;;;;5071352;28;20239;-73
2021/12/02 14:18:19;;;;;;;3.83;2.10;;;;;4.70;99660.00;;;;5045745;28;20295;-74
2021/12/02 14:21:07;;;;;;;3.13;1.93;;;;;4.80;99681.00;;;;5055904;28;20227;-72